Time;durP1;ratioP1;P1;durP2;ratioP2;P2;SDS_P1;SDS_P2;PMS_P1;PMS_P2;Temp;Humidity;BMP_temperature;BMP_pressure;BME280_temperature;BME280_humidity;BME280_pressure;Samples;Min_cycle;Max_cycle;Signal;HPM_P1;HPM_P2
2021/11/26 00:02:26;;;;;;;0.40;0.40;;;2.10;99.90;;;;;;5035235;28;20022;-77
2021/11/26 00:04:53;;;;;;;0.40;0.40;;;2.10;99.90;;;;;;5035166;28;20044;-77
2021/11/26 00:07:19;;;;;;;0.30;0.30;;;2.00;99.90;;;;;;5035121;28;20104;-78
2021/11/26 00:09:46;;;;;;;0.35;0.35;;;1.80;99.90;;;;;;5034986;28;20025;-76
2021/11/26 00:12:11;;;;;;;0.38;0.38;;;1.90;99.90;;;;;;5034837;28;20108;-77
2021/11/26 00:14:46;;;;;;;0.70;0.65;;;2.00;99.90;;;;;;5033642;28;20508;-77
2021/11/26 00:17:18;;;;;;;0.30;0.30;;;2.00;99.90;;;;;;5033766;28;20026;-78
2021/11/26 00:19:44;;;;;;;0.30;0.30;;;2.10;99.90;;;;;;5034912;28;20075;-77
2021/11/26 00:22:10;;;;;;;3.53;1.58;;;1.90;99.90;;;;;;5033624;28;20559;-77
2021/11/26 00:24:36;;;;;;;1.85;1.75;;;2.10;99.90;;;;;;5033614;28;20021;-77
2021/11/26 00:27:02;;;;;;;4.13;1.75;;;2.10;99.90;;;;;;5034740;28;20096;-77
2021/11/26 00:29:27;;;;;;;1.52;0.70;;;2.20;99.90;;;;;;5034702;28;20024;-77
2021/11/26 00:31:53;;;;;;;0.40;0.40;;;2.10;99.90;;;;;;5033480;28;20034;-77
2021/11/26 00:34:19;;;;;;;0.30;0.30;;;2.10;99.90;;;;;;5034816;28;20524;-77
2021/11/26 00:36:44;;;;;;;0.32;0.32;;;2.10;99.90;;;;;;5034546;28;20028;-78
2021/11/26 00:39:10;;;;;;;4.75;3.60;;;2.00;99.90;;;;;;5034620;28;20021;-77
2021/11/26 00:41:36;;;;;;;0.90;0.90;;;2.00;99.90;;;;;;5034595;28;20026;-76
2021/11/26 00:44:02;;;;;;;0.88;0.85;;;2.00;99.90;;;;;;5033075;28;20037;-77
2021/11/26 00:46:28;;;;;;;0.40;0.40;;;2.00;99.90;;;;;;5034418;28;20033;-77
2021/11/26 00:48:54;;;;;;;0.40;0.40;;;1.90;99.90;;;;;;5034486;28;20036;-77
2021/11/26 00:51:20;;;;;;;0.30;0.30;;;1.90;99.90;;;;;;5033059;28;20030;-77
2021/11/26 00:53:46;;;;;;;0.88;0.88;;;2.00;99.90;;;;;;5034319;28;20381;-77
2021/11/26 00:56:12;;;;;;;0.30;0.30;;;1.90;99.90;;;;;;5034138;28;20026;-78
2021/11/26 00:58:38;;;;;;;1.20;1.15;;;2.00;99.90;;;;;;5034289;28;20105;-77
2021/11/26 01:01:04;;;;;;;0.50;0.50;;;2.00;99.90;;;;;;5034021;28;20108;-77
2021/11/26 01:03:29;;;;;;;0.40;0.40;;;2.10;99.90;;;;;;5032975;28;20029;-78
2021/11/26 01:05:55;;;;;;;3.15;2.95;;;2.10;99.90;;;;;;5033918;28;20025;-78
2021/11/26 01:08:21;;;;;;;0.50;0.50;;;2.00;99.90;;;;;;5034012;28;20032;-77
2021/11/26 01:10:49;;;;;;;4.95;2.15;;;1.70;99.90;;;;;;5033709;28;20549;-76
2021/11/26 01:13:15;;;;;;;2.50;0.88;;;1.70;99.90;;;;;;5016350;28;20339;-77
2021/11/26 01:15:43;;;;;;;2.75;2.58;;;1.60;99.90;;;;;;5033770;28;20385;-77
2021/11/26 01:18:14;;;;;;;0.30;0.30;;;1.50;99.90;;;;;;5032612;28;20021;-77
2021/11/26 01:20:41;;;;;;;0.35;0.35;;;1.40;99.90;;;;;;5033846;28;20041;-77
2021/11/26 01:23:07;;;;;;;0.30;0.30;;;1.50;99.90;;;;;;5033745;28;20041;-78
2021/11/26 01:25:35;;;;;;;2.00;1.85;;;1.50;99.90;;;;;;5032276;28;20029;-77
2021/11/26 01:28:01;;;;;;;0.40;0.40;;;1.40;99.90;;;;;;5033620;28;20366;-77
2021/11/26 01:30:31;;;;;;;0.80;0.80;;;1.50;99.90;;;;;;5033476;28;20052;-78
2021/11/26 01:33:02;;;;;;;0.30;0.30;;;1.60;99.90;;;;;;5033646;28;20053;-77
2021/11/26 01:35:29;;;;;;;0.77;0.77;;;1.80;99.90;;;;;;5033452;28;20029;-77
2021/11/26 01:37:55;;;;;;;0.73;0.73;;;1.90;99.90;;;;;;5033542;28;20086;-77
2021/11/26 01:40:22;;;;;;;0.30;0.30;;;1.90;99.90;;;;;;5031979;28;20550;-77
2021/11/26 01:42:52;;;;;;;0.30;0.30;;;1.50;99.90;;;;;;5033471;28;20018;-77
2021/11/26 01:45:18;;;;;;;1.50;1.40;;;1.60;99.90;;;;;;5033199;28;20030;-77
2021/11/26 01:47:44;;;;;;;0.98;0.98;;;1.70;99.90;;;;;;5031967;28;20112;-77
2021/11/26 01:50:12;;;;;;;0.30;0.30;;;1.90;99.90;;;;;;5033073;28;20029;-77
2021/11/26 01:52:38;;;;;;;1.60;1.52;;;2.00;99.90;;;;;;5033229;28;20424;-77
2021/11/26 01:55:06;;;;;;;0.35;0.35;;;2.00;99.90;;;;;;5031129;28;20045;-77
2021/11/26 01:57:32;;;;;;;0.30;0.30;;;2.10;99.90;;;;;;5031811;28;20021;-78
2021/11/26 01:59:58;;;;;;;1.48;1.38;;;2.00;99.90;;;;;;5033057;28;20545;-77
2021/11/26 02:02:24;;;;;;;0.30;0.30;;;1.90;99.90;;;;;;5033003;28;20113;-77
2021/11/26 02:04:50;;;;;;;0.50;0.50;;;1.80;99.90;;;;;;5032831;28;20033;-77
2021/11/26 02:07:17;;;;;;;1.38;1.27;;;1.90;99.90;;;;;;5031696;28;20029;-77
2021/11/26 02:09:43;;;;;;;2.72;1.65;;;1.90;99.90;;;;;;5032702;28;20033;-76
2021/11/26 02:12:09;;;;;;;0.30;0.30;;;2.00;99.90;;;;;;5032715;28;20420;-77
2021/11/26 02:14:35;;;;;;;0.30;0.30;;;2.00;99.90;;;;;;5032656;28;20104;-77
2021/11/26 02:17:02;;;;;;;0.40;0.40;;;1.90;99.90;;;;;;5032612;28;20057;-77
2021/11/26 02:19:27;;;;;;;0.30;0.30;;;1.80;99.90;;;;;;5031479;28;20028;-77
2021/11/26 02:21:55;;;;;;;2.47;1.10;;;1.70;99.90;;;;;;5032645;28;20366;-79
2021/11/26 02:24:21;;;;;;;3.95;1.48;;;1.60;99.90;;;;;;5032642;28;20036;-77
2021/11/26 02:26:49;;;;;;;2.45;1.05;;;1.70;99.90;;;;;;5032323;28;20108;-77
2021/11/26 02:29:17;;;;;;;0.30;0.30;;;1.60;99.90;;;;;;5031344;28;20025;-77
2021/11/26 02:31:44;;;;;;;0.30;0.30;;;1.80;99.90;;;;;;5031251;28;20425;-77
2021/11/26 02:34:10;;;;;;;3.60;1.55;;;1.70;99.90;;;;;;5031396;28;20619;-77
2021/11/26 02:36:36;;;;;;;0.30;0.30;;;1.80;99.90;;;;;;5032421;28;20021;-77
2021/11/26 02:39:08;;;;;;;0.30;0.30;;;1.90;99.90;;;;;;5031097;28;20125;-79
2021/11/26 02:41:38;;;;;;;0.40;0.40;;;1.90;99.90;;;;;;5031128;28;20087;-77
2021/11/26 02:44:04;;;;;;;4.53;4.25;;;1.80;99.90;;;;;;5032396;28;20032;-77
2021/11/26 02:46:31;;;;;;;0.38;0.38;;;1.70;99.90;;;;;;5032164;28;20057;-78
2021/11/26 02:48:56;;;;;;;0.30;0.30;;;1.70;99.90;;;;;;5031101;28;20029;-77
2021/11/26 02:51:22;;;;;;;0.75;0.60;;;1.80;99.90;;;;;;5032176;28;20029;-78
2021/11/26 02:53:48;;;;;;;0.55;0.55;;;2.00;99.90;;;;;;5032350;28;20026;-77
2021/11/26 02:56:14;;;;;;;2.22;1.45;;;2.10;99.90;;;;;;5030881;28;20087;-77
2021/11/26 02:58:40;;;;;;;11.75;3.03;;;2.10;99.90;;;;;;5030927;28;20025;-76
2021/11/26 03:01:06;;;;;;;1.55;1.45;;;2.10;99.90;;;;;;5030779;28;20033;-77
2021/11/26 03:03:32;;;;;;;0.85;0.85;;;1.90;99.90;;;;;;5031094;28;20029;-77
2021/11/26 03:06:01;;;;;;;0.30;0.30;;;2.00;99.90;;;;;;5030932;28;20672;-77
2021/11/26 03:08:27;;;;;;;0.68;0.68;;;1.90;99.90;;;;;;5036164;28;20112;-78
2021/11/26 03:10:53;;;;;;;2.40;2.03;;;1.90;99.90;;;;;;5035957;28;20370;-77
2021/11/26 03:13:19;;;;;;;0.40;0.40;;;2.00;99.90;;;;;;5036234;28;20048;-79
2021/11/26 03:15:46;;;;;;;0.68;0.68;;;1.90;99.90;;;;;;5034785;28;20028;-78
2021/11/26 03:18:16;;;;;;;0.32;0.32;;;2.10;99.90;;;;;;5036037;28;20028;-77
2021/11/26 03:20:42;;;;;;;1.83;1.73;;;2.00;99.90;;;;;;5035995;28;20515;-77
2021/11/26 03:23:08;;;;;;;21.27;4.57;;;1.90;99.90;;;;;;5036017;28;20048;-77
2021/11/26 03:25:34;;;;;;;2.05;1.50;;;1.90;99.90;;;;;;5035879;28;20479;-77
2021/11/26 03:28:00;;;;;;;1.73;1.63;;;1.90;99.90;;;;;;5035742;28;20109;-77
2021/11/26 03:30:26;;;;;;;2.17;1.98;;;2.00;99.90;;;;;;5035749;28;20385;-77
2021/11/26 03:32:53;;;;;;;0.30;0.30;;;2.00;99.90;;;;;;5035881;28;20533;-77
2021/11/26 03:35:19;;;;;;;6.60;3.50;;;1.90;99.90;;;;;;5034408;28;20481;-77
2021/11/26 03:37:47;;;;;;;0.63;0.63;;;1.80;99.90;;;;;;5035715;28;20095;-78
2021/11/26 03:40:15;;;;;;;0.60;0.60;;;1.60;99.90;;;;;;5034534;28;20071;-77
2021/11/26 03:42:41;;;;;;;0.43;0.43;;;1.60;99.90;;;;;;5034365;28;20025;-77
2021/11/26 03:45:08;;;;;;;0.30;0.30;;;1.50;99.90;;;;;;5035432;28;20044;-77
2021/11/26 03:47:35;;;;;;;0.32;0.32;;;1.70;99.90;;;;;;5035529;28;20053;-77
2021/11/26 03:50:00;;;;;;;0.38;0.38;;;1.80;99.90;;;;;;5035393;28;20036;-76
2021/11/26 03:52:26;;;;;;;2.33;2.15;;;1.90;99.90;;;;;;5034234;28;20017;-78
2021/11/26 03:54:52;;;;;;;2.17;1.08;;;1.90;99.90;;;;;;5034062;28;20381;-77
2021/11/26 03:57:17;;;;;;;0.50;0.50;;;1.80;99.90;;;;;;5035384;28;20024;-77
2021/11/26 03:59:43;;;;;;;0.30;0.30;;;1.90;99.90;;;;;;5035230;28;20025;-77
2021/11/26 04:02:09;;;;;;;0.35;0.35;;;1.90;99.90;;;;;;5035330;28;20075;-77
2021/11/26 04:04:36;;;;;;;0.40;0.40;;;2.00;99.90;;;;;;5033889;28;20026;-77
2021/11/26 04:07:02;;;;;;;0.32;0.32;;;1.90;99.90;;;;;;5035258;28;20025;-79
2021/11/26 04:09:28;;;;;;;0.45;0.45;;;1.80;99.90;;;;;;5033788;28;20104;-77
2021/11/26 04:11:54;;;;;;;1.63;1.52;;;1.80;99.90;;;;;;5034980;28;20112;-77
2021/11/26 04:14:19;;;;;;;1.92;1.83;;;1.90;99.90;;;;;;5035095;28;20048;-77
2021/11/26 04:16:47;;;;;;;0.57;0.57;;;1.80;99.90;;;;;;5034835;28;20473;-77
2021/11/26 04:19:14;;;;;;;1.27;1.00;;;1.80;99.90;;;;;;5034245;28;20021;-77
2021/11/26 04:21:40;;;;;;;0.40;0.40;;;1.70;99.90;;;;;;5034893;28;20388;-77
2021/11/26 04:24:05;;;;;;;0.40;0.40;;;1.90;99.90;;;;;;5034979;28;20033;-77
2021/11/26 04:26:31;;;;;;;17.40;4.22;;;2.00;99.90;;;;;;5034520;28;20025;-77
2021/11/26 04:28:59;;;;;;;3.60;3.40;;;2.00;99.90;;;;;;5034842;28;20337;-77
2021/11/26 04:31:25;;;;;;;0.50;0.50;;;2.10;99.90;;;;;;5033404;28;20083;-77
2021/11/26 04:33:53;;;;;;;3.15;1.27;;;2.10;99.90;;;;;;5034858;28;20045;-78
2021/11/26 04:36:19;;;;;;;0.45;0.45;;;2.10;99.90;;;;;;5034496;28;20124;-77
2021/11/26 04:38:45;;;;;;;0.20;0.20;;;2.10;99.90;;;;;;5034614;28;20132;-77
2021/11/26 04:41:11;;;;;;;1.23;1.20;;;2.20;99.90;;;;;;5034523;28;20025;-78
2021/11/26 04:43:37;;;;;;;0.75;0.75;;;2.30;99.90;;;;;;5034596;28;20504;-77
2021/11/26 04:46:03;;;;;;;0.63;0.63;;;2.30;99.90;;;;;;5034262;28;20028;-77
2021/11/26 04:48:29;;;;;;;0.73;0.73;;;2.10;99.90;;;;;;5034402;28;20033;-77
2021/11/26 04:50:54;;;;;;;9.32;2.38;;;1.90;99.90;;;;;;5034246;28;20040;-77
2021/11/26 04:53:20;;;;;;;4.28;1.05;;;1.80;99.90;;;;;;5034420;28;20033;-77
2021/11/26 04:55:47;;;;;;;0.30;0.30;;;1.60;99.90;;;;;;5034093;28;20370;-77
2021/11/26 04:58:13;;;;;;;1.75;1.65;;;1.50;99.90;;;;;;5034257;28;20018;-77
2021/11/26 05:00:39;;;;;;;1.20;1.15;;;1.60;99.90;;;;;;5034198;28;20037;-77
2021/11/26 05:03:06;;;;;;;0.40;0.40;;;1.70;99.90;;;;;;5034224;28;20033;-77
2021/11/26 05:05:32;;;;;;;5.28;4.88;;;1.80;99.90;;;;;;5032705;28;20029;-77
2021/11/26 05:07:58;;;;;;;0.55;0.55;;;1.90;99.90;;;;;;5032784;28;20033;-78
2021/11/26 05:10:27;;;;;;;0.50;0.50;;;2.00;99.90;;;;;;5033789;28;20032;-78
2021/11/26 05:12:58;;;;;;;4.00;2.55;;;2.00;99.90;;;;;;5047584;22;20132;-72
2021/11/26 05:15:27;;;;;;;20.08;7.53;;;2.10;99.90;;;;;;5033315;28;20018;-72
2021/11/26 05:18:02;;;;;;;5.53;3.38;;;1.80;99.90;;;;;;5015807;28;20412;-72
2021/11/26 05:20:30;;;;;;;0.40;0.40;;;1.60;99.90;;;;;;5033326;28;20033;-72
2021/11/26 05:22:57;;;;;;;0.30;0.30;;;1.60;99.90;;;;;;5015509;28;20075;-72
2021/11/26 05:25:22;;;;;;;3.50;2.25;;;1.80;99.90;;;;;;5032786;28;20477;-72
2021/11/26 05:27:49;;;;;;;3.83;0.77;;;1.90;99.90;;;;;;5033194;28;20036;-72
2021/11/26 05:30:16;;;;;;;3.33;1.17;;;1.90;99.90;;;;;;5014455;28;20397;-72
2021/11/26 05:32:42;;;;;;;2.15;1.60;;;1.70;99.90;;;;;;5015392;28;20032;-72
2021/11/26 05:35:10;;;;;;;1.77;1.65;;;1.60;99.90;;;;;;5032694;28;20440;-72
2021/11/26 05:37:35;;;;;;;3.10;0.85;;;1.60;99.90;;;;;;5015198;28;20017;-72
2021/11/26 05:40:03;;;;;;;0.75;0.75;;;1.60;99.90;;;;;;5015320;28;20025;-72
2021/11/26 05:42:28;;;;;;;1.40;1.33;;;1.50;99.90;;;;;;5032836;28;20032;-72
2021/11/26 05:44:54;;;;;;;6.95;2.47;;;1.50;99.90;;;;;;5015051;28;20029;-72
2021/11/26 05:47:20;;;;;;;15.98;6.78;;;1.50;99.90;;;;;;5032873;28;20040;-72
2021/11/26 05:49:46;;;;;;;0.80;0.80;;;1.60;99.90;;;;;;5014793;28;20138;-72
2021/11/26 05:52:11;;;;;;;0.50;0.50;;;1.60;99.90;;;;;;5032812;28;20022;-72
2021/11/26 05:54:37;;;;;;;0.88;0.88;;;1.60;99.90;;;;;;5032587;28;20021;-72
2021/11/26 05:57:04;;;;;;;0.70;0.70;;;1.70;99.90;;;;;;5014823;28;20112;-72
2021/11/26 05:59:30;;;;;;;0.50;0.50;;;1.60;99.90;;;;;;5032548;28;20075;-72
2021/11/26 06:01:58;;;;;;;0.75;0.75;;;1.40;99.90;;;;;;5014741;28;20473;-72
2021/11/26 06:04:25;;;;;;;0.30;0.30;;;1.30;99.90;;;;;;5032467;28;20056;-72
2021/11/26 06:06:51;;;;;;;9.27;5.53;;;1.30;99.90;;;;;;5014636;28;20025;-72
2021/11/26 06:09:17;;;;;;;8.77;4.70;;;1.40;99.90;;;;;;5032445;28;20095;-72
2021/11/26 06:11:42;;;;;;;0.30;0.30;;;1.40;99.90;;;;;;5032043;28;20033;-72
2021/11/26 06:14:08;;;;;;;0.65;0.65;;;1.30;99.90;;;;;;5032462;28;20045;-72
2021/11/26 06:16:34;;;;;;;0.30;0.30;;;1.20;99.90;;;;;;5014671;28;20021;-72
2021/11/26 06:19:00;;;;;;;2.05;1.95;;;1.20;99.90;;;;;;5014412;28;20071;-72
2021/11/26 06:21:26;;;;;;;1.00;1.00;;;1.30;99.90;;;;;;5032268;28;20029;-72
2021/11/26 06:23:52;;;;;;;1.52;1.42;;;1.50;99.90;;;;;;4998138;28;20025;-72
2021/11/26 06:26:17;;;;;;;0.40;0.40;;;1.60;99.90;;;;;;4997787;28;20032;-72
2021/11/26 06:28:43;;;;;;;2.35;2.15;;;1.60;99.90;;;;;;4998008;28;20025;-72
2021/11/26 06:31:09;;;;;;;0.45;0.45;;;1.80;99.90;;;;;;5014309;28;20045;-72
2021/11/26 06:33:35;;;;;;;20.02;2.72;;;1.60;99.90;;;;;;5014307;28;20034;-72
2021/11/26 06:36:00;;;;;;;8.23;7.68;;;1.60;99.90;;;;;;5013842;28;20104;-72
2021/11/26 06:38:26;;;;;;;0.82;0.82;;;1.40;99.90;;;;;;5031922;28;20026;-72
2021/11/26 06:40:52;;;;;;;1.38;1.27;;;1.40;99.90;;;;;;5031471;28;20025;-73
2021/11/26 06:43:17;;;;;;;0.30;0.30;;;1.40;99.90;;;;;;5014084;28;20033;-73
2021/11/26 06:45:43;;;;;;;0.30;0.30;;;1.50;99.90;;;;;;5013966;28;20025;-72
2021/11/26 06:48:10;;;;;;;0.47;0.47;;;1.70;99.90;;;;;;5013514;28;20047;-72
2021/11/26 06:50:37;;;;;;;0.88;0.88;;;1.50;99.90;;;;;;5035956;28;20037;-72
2021/11/26 06:53:06;;;;;;;1.20;1.10;;;1.50;99.90;;;;;;5010519;28;20525;-72
2021/11/26 06:55:32;;;;;;;0.45;0.45;;;1.50;99.90;;;;;;5008894;28;20052;-72
2021/11/26 06:57:58;;;;;;;0.40;0.40;;;1.60;99.90;;;;;;5034834;28;20123;-72
2021/11/26 07:00:25;;;;;;;0.45;0.45;;;1.80;99.90;;;;;;5000222;28;20021;-72
2021/11/26 07:02:51;;;;;;;0.40;0.40;;;2.00;99.90;;;;;;5051442;28;20029;-72
2021/11/26 07:05:17;;;;;;;0.50;0.50;;;2.00;99.90;;;;;;5044672;28;20088;-72
2021/11/26 07:07:44;;;;;;;0.30;0.30;;;2.00;99.90;;;;;;5013731;28;20065;-72
2021/11/26 07:10:11;;;;;;;0.30;0.30;;;1.80;99.90;;;;;;5026413;28;20044;-72
2021/11/26 07:12:37;;;;;;;2.08;1.23;;;1.90;99.90;;;;;;5051271;28;20087;-72
2021/11/26 07:15:06;;;;;;;5.63;5.10;;;1.90;99.90;;;;;;5051862;28;20079;-72
2021/11/26 07:17:32;;;;;;;0.30;0.30;;;1.80;99.90;;;;;;5051333;28;20021;-72
2021/11/26 07:19:58;;;;;;;3.60;1.67;;;1.70;99.90;;;;;;5033658;28;20024;-72
2021/11/26 07:22:24;;;;;;;0.45;0.45;;;1.80;99.90;;;;;;5026376;28;20022;-72
2021/11/26 07:24:50;;;;;;;2.40;2.30;;;1.90;99.90;;;;;;5029210;28;20496;-72
2021/11/26 07:27:16;;;;;;;0.40;0.40;;;2.00;99.90;;;;;;5029709;28;20046;-72
2021/11/26 07:29:42;;;;;;;0.40;0.40;;;2.00;99.90;;;;;;5029418;28;20061;-72
2021/11/26 07:32:09;;;;;;;1.25;1.20;;;2.00;99.90;;;;;;5030244;28;20025;-72
2021/11/26 07:34:35;;;;;;;0.30;0.30;;;2.10;99.90;;;;;;5013223;28;20175;-72
2021/11/26 07:37:01;;;;;;;1.20;1.20;;;1.90;99.90;;;;;;5013574;28;20559;-72
2021/11/26 07:39:35;;;;;;;2.08;1.27;;;1.80;99.90;;;;;;5001372;28;20021;-72
2021/11/26 07:42:03;;;;;;;1.95;1.85;;;1.80;99.90;;;;;;5042341;28;20033;-74
2021/11/26 07:44:31;;;;;;;0.38;0.38;;;2.00;99.90;;;;;;5020764;28;20029;-72
2021/11/26 07:46:58;;;;;;;8.02;4.00;;;1.80;99.90;;;;;;5031067;28;20064;-72
2021/11/26 07:49:24;;;;;;;0.30;0.30;;;1.70;99.90;;;;;;5048984;28;20083;-73
2021/11/26 07:51:51;;;;;;;0.45;0.45;;;1.70;99.90;;;;;;5050111;28;20033;-72
2021/11/26 07:54:17;;;;;;;1.05;1.05;;;1.80;99.90;;;;;;5053340;28;20143;-72
2021/11/26 07:56:43;;;;;;;2.22;0.88;;;1.90;99.90;;;;;;5047704;28;20017;-72
2021/11/26 07:59:09;;;;;;;0.93;0.93;;;2.00;99.90;;;;;;5033733;28;20103;-72
2021/11/26 08:01:35;;;;;;;5.22;4.80;;;2.10;99.90;;;;;;5002884;28;20453;-71
2021/11/26 08:04:01;;;;;;;0.30;0.30;;;2.10;99.90;;;;;;5034358;28;20032;-72
2021/11/26 08:06:27;;;;;;;4.90;2.75;;;2.00;99.90;;;;;;5034288;28;20069;-72
2021/11/26 08:08:53;;;;;;;0.30;0.30;;;2.10;99.90;;;;;;5016734;28;20053;-73
2021/11/26 08:11:19;;;;;;;1.38;1.27;;;2.00;99.90;;;;;;5015969;28;20029;-72
2021/11/26 08:13:44;;;;;;;6.75;1.10;;;1.90;99.90;;;;;;5021929;28;20025;-72
2021/11/26 08:16:11;;;;;;;0.30;0.30;;;1.80;99.90;;;;;;5034970;28;20033;-72
2021/11/26 08:18:37;;;;;;;0.32;0.32;;;1.90;99.90;;;;;;5015047;28;20045;-72
2021/11/26 08:21:04;;;;;;;7.60;2.80;;;1.90;99.90;;;;;;5033191;28;20037;-72
2021/11/26 08:23:30;;;;;;;0.55;0.55;;;1.90;99.90;;;;;;5006685;28;20048;-72
2021/11/26 08:25:59;;;;;;;3.10;1.33;;;1.90;99.90;;;;;;5021084;28;20025;-72
2021/11/26 08:28:27;;;;;;;3.55;3.20;;;1.90;99.90;;;;;;5032345;28;20477;-71
2021/11/26 08:30:54;;;;;;;0.73;0.73;;;2.00;99.90;;;;;;5032898;28;20029;-71
2021/11/26 08:33:19;;;;;;;0.30;0.30;;;1.80;99.90;;;;;;5032425;28;20026;-72
2021/11/26 08:35:46;;;;;;;0.30;0.30;;;1.70;99.90;;;;;;5015011;28;20037;-72
2021/11/26 08:38:12;;;;;;;0.30;0.30;;;1.70;99.90;;;;;;5032309;28;20029;-72
2021/11/26 08:40:38;;;;;;;0.30;0.30;;;2.00;99.90;;;;;;5032443;28;20033;-72
2021/11/26 08:43:04;;;;;;;0.47;0.47;;;2.20;99.90;;;;;;4997746;28;20032;-72
2021/11/26 08:45:29;;;;;;;0.50;0.50;;;2.30;99.90;;;;;;5032600;28;20025;-72
2021/11/26 08:47:55;;;;;;;2.85;2.35;;;2.10;99.90;;;;;;5016042;28;20029;-72
2021/11/26 08:50:22;;;;;;;1.23;1.08;;;1.90;99.90;;;;;;5032580;28;20068;-72
2021/11/26 08:52:48;;;;;;;0.30;0.30;;;1.70;99.90;;;;;;5032273;28;20104;-72
2021/11/26 08:55:17;;;;;;;0.45;0.45;;;1.80;99.90;;;;;;5030528;28;20096;-72
2021/11/26 08:57:53;;;;;;;0.50;0.50;;;1.90;99.90;;;;;;5030721;28;20376;-72
2021/11/26 09:00:23;;;;;;;4.57;2.25;;;2.20;99.90;;;;;;4998368;28;20061;-72
2021/11/26 09:02:49;;;;;;;1.27;1.27;;;2.30;99.90;;;;;;5033254;28;20037;-72
2021/11/26 09:05:15;;;;;;;1.33;1.30;;;2.40;99.90;;;;;;5032053;28;20030;-72
2021/11/26 09:07:44;;;;;;;0.50;0.50;;;2.50;99.90;;;;;;5014816;28;20040;-71
2021/11/26 09:10:10;;;;;;;5.15;2.60;;;2.40;99.90;;;;;;5013757;28;20033;-72
2021/11/26 09:12:36;;;;;;;1.23;1.23;;;2.40;99.90;;;;;;5014373;28;20029;-72
2021/11/26 09:15:02;;;;;;;0.60;0.60;;;2.50;99.90;;;;;;5022363;28;20040;-72
2021/11/26 09:17:28;;;;;;;0.30;0.30;;;2.40;99.90;;;;;;5031989;28;20101;-72
2021/11/26 09:19:54;;;;;;;1.95;1.80;;;2.40;99.90;;;;;;5013954;28;20108;-72
2021/11/26 09:22:19;;;;;;;3.28;3.08;;;2.40;99.90;;;;;;4997760;28;20105;-72
2021/11/26 09:24:45;;;;;;;0.30;0.30;;;2.40;99.90;;;;;;5013776;28;20492;-72
2021/11/26 09:27:11;;;;;;;0.80;0.80;;;2.40;99.90;;;;;;5014106;28;20563;-72
2021/11/26 09:29:41;;;;;;;1.02;1.00;;;2.50;99.90;;;;;;5032141;28;20058;-72
2021/11/26 09:32:07;;;;;;;0.30;0.30;;;2.30;99.90;;;;;;5030493;28;20480;-72
2021/11/26 09:34:33;;;;;;;0.40;0.40;;;2.20;99.90;;;;;;5030347;28;20511;-72
2021/11/26 09:36:59;;;;;;;3.60;1.85;;;2.10;99.90;;;;;;5015728;28;20025;-72
2021/11/26 09:39:25;;;;;;;1.40;0.80;;;1.80;99.90;;;;;;5013814;28;20052;-71
2021/11/26 09:41:53;;;;;;;0.30;0.30;;;1.90;99.90;;;;;;5031770;28;20100;-72
2021/11/26 09:44:19;;;;;;;1.00;1.00;;;2.00;99.90;;;;;;5017878;28;20034;-71
2021/11/26 09:46:47;;;;;;;2.67;2.47;;;2.10;99.90;;;;;;5029029;28;20013;-72
2021/11/26 09:49:12;;;;;;;2.67;1.23;;;2.20;99.90;;;;;;5017942;28;20036;-72
2021/11/26 09:51:38;;;;;;;4.32;3.97;;;2.40;99.90;;;;;;5013524;28;20104;-72
2021/11/26 09:54:05;;;;;;;0.45;0.45;;;2.40;99.90;;;;;;5031129;28;20083;-72
2021/11/26 09:56:31;;;;;;;0.30;0.30;;;2.40;99.90;;;;;;4997389;28;20040;-72
2021/11/26 09:58:59;;;;;;;0.30;0.30;;;2.60;99.90;;;;;;5016816;28;20029;-72
2021/11/26 10:01:25;;;;;;;5.78;2.63;;;2.40;99.90;;;;;;4997186;28;20039;-72
2021/11/26 10:03:53;;;;;;;4.95;3.88;;;2.50;99.90;;;;;;5031062;28;20025;-72
2021/11/26 10:06:26;;;;;;;11.40;0.63;;;2.50;99.90;;;;;;5031117;28;20108;-72
2021/11/26 10:08:59;;;;;;;0.30;0.30;;;2.40;99.90;;;;;;5012303;28;20083;-71
2021/11/26 10:11:27;;;;;;;0.50;0.50;;;2.10;99.90;;;;;;4995155;28;20041;-72
2021/11/26 10:13:54;;;;;;;0.50;0.50;;;2.10;99.90;;;;;;5012967;28;20026;-71
2021/11/26 10:16:21;;;;;;;0.30;0.30;;;2.30;99.90;;;;;;5014432;28;20021;-71
2021/11/26 10:18:49;;;;;;;2.83;1.00;;;2.10;99.90;;;;;;5030889;28;20112;-72
2021/11/26 10:21:16;;;;;;;1.25;1.25;;;2.10;99.90;;;;;;5016263;28;20030;-71
2021/11/26 10:23:47;;;;;;;0.57;0.57;;;2.30;99.90;;;;;;4996553;28;20025;-72
2021/11/26 10:26:25;;;;;;;3.72;1.67;;;2.40;99.90;;;;;;5030091;28;20029;-72
2021/11/26 10:29:04;;;;;;;1.27;1.27;;;2.60;99.90;;;;;;5030312;28;20060;-71
2021/11/26 10:31:39;;;;;;;0.77;0.77;;;2.50;99.90;;;;;;5012197;28;20040;-72
2021/11/26 10:34:07;;;;;;;0.30;0.30;;;2.40;99.90;;;;;;4997886;28;20030;-72
2021/11/26 10:36:44;;;;;;;1.55;1.48;;;2.50;99.90;;;;;;5031274;28;20079;-71
2021/11/26 10:39:12;;;;;;;5.18;3.22;;;2.30;99.90;;;;;;5031736;28;20028;-71
2021/11/26 10:41:38;;;;;;;0.95;0.95;;;2.40;99.90;;;;;;5013926;28;20018;-72
2021/11/26 10:44:10;;;;;;;0.28;0.28;;;2.50;99.90;;;;;;5032741;28;20526;-72
2021/11/26 10:46:43;;;;;;;0.30;0.30;;;2.60;99.90;;;;;;5024564;28;20504;-72
2021/11/26 10:59:58;;;;;;;0.90;0.65;;;2.30;99.90;;;;;;5050963;28;20017;-73
2021/11/26 11:02:39;;;;;;;3.67;2.75;;;2.50;99.90;;;;;;5051192;28;20028;-72
2021/11/26 11:05:08;;;;;;;1.00;1.00;;;2.30;99.90;;;;;;5034715;28;20029;-74
2021/11/26 11:07:38;;;;;;;0.30;0.30;;;2.00;99.90;;;;;;5051337;28;20024;-73
2021/11/26 11:10:04;;;;;;;0.20;0.20;;;1.90;99.90;;;;;;5050997;28;20031;-72
2021/11/26 11:12:33;;;;;;;0.50;0.50;;;2.00;99.90;;;;;;5033264;28;20036;-72
2021/11/26 11:15:03;;;;;;;0.63;0.63;;;2.10;99.90;;;;;;5007406;28;20110;-72
2021/11/26 11:17:29;;;;;;;0.63;0.63;;;2.30;99.90;;;;;;5039959;28;20381;-72
2021/11/26 11:19:59;;;;;;;8.35;3.92;;;2.20;99.90;;;;;;5013298;28;20385;-72
2021/11/26 11:22:26;;;;;;;0.35;0.35;;;2.00;99.90;;;;;;5017862;28;20025;-72
2021/11/26 11:24:52;;;;;;;5.72;4.03;;;2.00;99.90;;;;;;5050139;28;20492;-72
2021/11/26 11:27:19;;;;;;;5.03;2.78;;;2.00;99.90;;;;;;5051866;28;20350;-72
2021/11/26 11:29:44;;;;;;;3.25;2.88;;;2.00;99.90;;;;;;5037268;28;20021;-72
2021/11/26 11:32:12;;;;;;;11.10;5.15;;;1.90;99.90;;;;;;5051849;28;20036;-72
2021/11/26 11:34:38;;;;;;;2.28;1.15;;;1.80;99.90;;;;;;5000405;28;20026;-72
2021/11/26 11:37:07;;;;;;;0.93;0.57;;;1.80;99.90;;;;;;5035195;28;20112;-72
2021/11/26 11:39:50;;;;;;;0.30;0.30;;;1.90;99.90;;;;;;5016959;28;20025;-72
2021/11/26 11:42:40;;;;;;;1.42;1.42;;;2.20;99.90;;;;;;5034659;28;20047;-72
2021/11/26 11:45:13;;;;;;;1.65;0.95;;;2.20;99.90;;;;;;5033553;28;20037;-72
2021/11/26 11:47:54;;;;;;;0.93;0.93;;;2.30;99.90;;;;;;5032771;28;20021;-72
2021/11/26 11:50:23;;;;;;;2.15;1.90;;;2.40;99.90;;;;;;5015424;28;20440;-72
2021/11/26 11:52:58;;;;;;;0.47;0.47;;;2.30;99.90;;;;;;5032715;28;20473;-72
2021/11/26 11:55:32;;;;;;;0.30;0.30;;;2.20;99.90;;;;;;5032550;28;20591;-72
2021/11/26 11:58:21;;;;;;;3.63;1.58;;;2.30;99.90;;;;;;5014985;28;20017;-72
2021/11/26 12:00:51;;;;;;;4.45;2.10;;;2.40;99.90;;;;;;5033615;28;20029;-72
2021/11/26 12:03:23;;;;;;;2.70;1.77;;;2.40;99.90;;;;;;5016855;28;20392;-72
2021/11/26 12:06:03;;;;;;;0.40;0.40;;;2.10;99.90;;;;;;5000200;28;20482;-72
2021/11/26 12:08:30;;;;;;;2.70;2.60;;;2.10;99.90;;;;;;5034563;28;20033;-72
2021/11/26 12:10:58;;;;;;;18.42;1.42;;;2.40;99.90;;;;;;5016574;28;20362;-72
2021/11/26 12:13:25;;;;;;;0.65;0.65;;;2.30;99.90;;;;;;5016804;28;20025;-72
2021/11/26 12:16:15;;;;;;;0.30;0.30;;;2.40;99.90;;;;;;5034307;28;20021;-72
2021/11/26 12:18:48;;;;;;;2.42;2.15;;;2.40;99.90;;;;;;5033737;28;20018;-72
2021/11/26 12:21:17;;;;;;;19.70;3.92;;;2.50;99.90;;;;;;5016321;28;20115;-73
2021/11/26 12:23:57;;;;;;;0.57;0.57;;;2.40;99.90;;;;;;5016135;28;20515;-72
2021/11/26 12:26:27;;;;;;;0.55;0.55;;;2.30;99.90;;;;;;4999788;28;20125;-72
2021/11/26 12:29:03;;;;;;;0.90;0.90;;;2.50;99.90;;;;;;5033797;28;20045;-72
2021/11/26 12:31:34;;;;;;;2.03;1.25;;;2.70;99.90;;;;;;5033594;28;20032;-73
2021/11/26 12:34:04;;;;;;;2.40;2.08;;;2.60;99.90;;;;;;5016085;28;20045;-72
2021/11/26 12:36:50;;;;;;;0.30;0.30;;;2.40;99.90;;;;;;5016085;28;20083;-72
2021/11/26 12:39:26;;;;;;;1.73;1.65;;;2.40;99.90;;;;;;5015649;28;20031;-72
2021/11/26 12:41:59;;;;;;;1.65;1.55;;;2.40;99.90;;;;;;5036658;28;20021;-72
2021/11/26 12:44:31;;;;;;;5.68;1.00;;;2.40;99.90;;;;;;5051072;28;20036;-72
2021/11/26 12:47:02;;;;;;;6.10;2.20;;;2.70;99.90;;;;;;5033854;28;20025;-72
2021/11/26 12:52:15;;;;;;;0.80;0.80;;;2.40;99.90;;;;;;5049861;28;20061;-73
2021/11/26 12:54:43;;;;;;;0.30;0.30;;;2.30;99.90;;;;;;4999505;28;20606;-72
2021/11/26 12:57:21;;;;;;;10.23;4.93;;;2.40;99.90;;;;;;5018846;28;20025;-72
2021/11/26 13:00:06;;;;;;;10.38;2.63;;;2.20;99.90;;;;;;5013527;28;20029;-72
2021/11/26 13:02:35;;;;;;;1.65;1.40;;;2.00;99.90;;;;;;5013847;28;20425;-72
2021/11/26 13:05:11;;;;;;;5.88;1.95;;;2.00;99.90;;;;;;5013634;28;20026;-72
2021/11/26 13:07:39;;;;;;;1.20;1.20;;;2.20;99.90;;;;;;5012109;28;20022;-72
2021/11/26 13:10:19;;;;;;;0.30;0.30;;;2.40;99.90;;;;;;5045383;28;20074;-73
2021/11/26 13:12:50;;;;;;;1.52;1.42;;;2.40;99.90;;;;;;5035021;28;20033;-72
2021/11/26 13:15:24;;;;;;;0.20;0.20;;;2.30;99.90;;;;;;5034923;28;20029;-73